Terminal Aerodrome Forecast
Issued by NWS

Home | Current Version | Previous Version | Text Only | Print | Product List | Glossary On
Versions: 1 2 3 4 5 6 7 8 9 10 11 12 13 14 15 16 17 18 19 20 21 22 23 24 25 26 27
000
FTUS42 KTAE 161500 AAC
TAFDHN
TAF AMD
KDHN 161529Z 1615/1712 00000KT P6SM FEW014 SCT023
     FM161600 30007KT P6SM VCTS SCT040CB BKN100
      TEMPO 1620/1624 3SM TSRA OVC030CB
     FM170200 36005KT P6SM SCT100 BKN250
     FM170600 35003KT P6SM SCT250=

USA.gov is the U.S. government's official web portal to all federal, state and local government web resources and services.